Time;durP1;ratioP1;P1;durP2;ratioP2;P2;SDS_P1;SDS_P2;PMS_P1;PMS_P2;Temp;Humidity;BMP_temperature;BMP_pressure;BME280_temperature;BME280_humidity;BME280_pressure;Samples;Min_cycle;Max_cycle;Signal;HPM_P1;HPM_P2
2023/04/20 00:01:16;;;;;;;4.03;2.08;;;7.10;1.00;;;;;;5043170;28;20044;-83
2023/04/20 00:03:42;;;;;;;6.22;2.63;;;7.10;1.00;;;;;;5062231;28;20043;-86
2023/04/20 00:06:08;;;;;;;6.70;2.10;;;7.10;1.00;;;;;;5053370;28;20051;-83
2023/04/20 00:08:33;;;;;;;6.50;2.58;;;7.10;1.00;;;;;;5054964;28;20048;-83
2023/04/20 00:10:59;;;;;;;5.85;2.17;;;7.10;1.00;;;;;;5054664;28;20048;-84
2023/04/20 00:13:25;;;;;;;3.42;2.00;;;7.10;1.00;;;;;;5071193;28;20061;-85
2023/04/20 00:15:51;;;;;;;4.47;1.98;;;7.10;1.00;;;;;;5053214;28;20497;-83
2023/04/20 00:18:16;;;;;;;4.30;1.98;;;7.50;1.00;;;;;;5058719;28;20122;-83
2023/04/20 00:20:42;;;;;;;4.45;2.10;;;7.40;1.00;;;;;;5044310;28;20037;-82
2023/04/20 00:23:08;;;;;;;4.80;2.00;;;7.50;1.00;;;;;;5071881;28;20048;-83
2023/04/20 00:25:34;;;;;;;5.45;1.77;;;7.60;1.00;;;;;;5054907;28;20040;-83
2023/04/20 00:28:00;;;;;;;3.65;1.70;;;7.70;1.00;;;;;;5043133;28;20486;-83
2023/04/20 00:30:25;;;;;;;2.65;1.80;;;7.50;1.00;;;;;;5054132;28;20048;-82
2023/04/20 00:32:51;;;;;;;5.43;1.80;;;7.60;1.00;;;;;;5071116;28;20504;-83
2023/04/20 00:35:17;;;;;;;5.18;1.73;;;7.60;1.00;;;;;;5053210;28;20067;-83
2023/04/20 00:37:43;;;;;;;4.53;1.45;;;7.60;1.00;;;;;;5052377;28;20114;-84
2023/04/20 00:40:09;;;;;;;3.58;1.85;;;7.90;1.00;;;;;;5044583;28;20040;-83
2023/04/20 00:42:34;;;;;;;5.13;1.98;;;7.90;1.00;;;;;;5071288;28;20393;-84
2023/04/20 00:45:00;;;;;;;4.45;1.60;;;8.00;1.00;;;;;;5036857;28;20043;-83
2023/04/20 00:47:26;;;;;;;3.83;1.83;;;8.20;1.00;;;;;;5076575;28;20044;-83
2023/04/20 00:49:53;;;;;;;4.25;1.85;;;7.90;1.00;;;;;;5037430;28;20130;-84
2023/04/20 00:52:20;;;;;;;6.70;2.25;;;8.20;1.00;;;;;;5086814;28;20049;-84
2023/04/20 00:54:46;;;;;;;3.25;1.70;;;8.20;1.00;;;;;;5052077;28;20044;-83
2023/04/20 00:57:13;;;;;;;3.70;1.48;;;8.30;1.00;;;;;;5070147;28;20105;-83
2023/04/20 00:59:40;;;;;;;3.75;1.52;;;8.40;1.00;;;;;;5055856;28;20036;-83
2023/04/20 01:02:06;;;;;;;4.70;2.03;;;8.30;1.00;;;;;;5060559;28;20048;-84
2023/04/20 01:04:34;;;;;;;5.20;2.00;;;8.20;1.00;;;;;;5075132;28;20097;-83
2023/04/20 01:07:01;;;;;;;2.90;1.75;;;8.40;1.00;;;;;;5047729;28;20048;-84
2023/04/20 01:09:27;;;;;;;6.00;1.80;;;8.30;1.00;;;;;;5037987;28;20047;-83
2023/04/20 01:11:53;;;;;;;4.15;1.75;;;8.30;1.00;;;;;;5033273;28;20051;-84
2023/04/20 01:14:19;;;;;;;4.95;1.55;;;8.40;1.00;;;;;;5054790;28;20482;-84
2023/04/20 01:16:46;;;;;;;6.38;2.42;;;8.20;1.00;;;;;;5047414;28;20083;-87
2023/04/20 01:19:12;;;;;;;2.65;1.40;;;7.90;1.00;;;;;;5054648;28;20047;-83
2023/04/20 01:21:38;;;;;;;5.22;1.80;;;8.30;1.00;;;;;;5053916;28;20045;-85
2023/04/20 01:24:04;;;;;;;3.05;1.75;;;8.30;1.00;;;;;;5050067;28;20095;-83
2023/04/20 01:26:30;;;;;;;4.45;1.85;;;8.40;1.00;;;;;;5053795;28;20060;-82
2023/04/20 01:28:55;;;;;;;4.53;1.90;;;8.40;1.00;;;;;;5050283;28;20049;-85
2023/04/20 01:31:21;;;;;;;4.03;1.80;;;8.40;1.00;;;;;;5036926;28;20047;-81
2023/04/20 01:33:47;;;;;;;3.28;1.50;;;8.30;1.00;;;;;;5071276;28;20075;-89
2023/04/20 01:36:13;;;;;;;5.10;1.67;;;8.20;1.00;;;;;;5070116;28;20048;-86
2023/04/20 01:38:39;;;;;;;3.22;1.58;;;8.30;1.00;;;;;;5062027;28;20056;-83
2023/04/20 01:41:07;;;;;;;5.93;1.70;;;8.30;1.00;;;;;;5053112;28;20037;-83
2023/04/20 01:43:34;;;;;;;2.22;1.70;;;8.30;1.00;;;;;;5070909;28;20421;-85
2023/04/20 01:46:00;;;;;;;3.33;1.40;;;8.30;1.00;;;;;;5042801;28;20045;-83
2023/04/20 01:48:26;;;;;;;5.15;1.90;;;8.40;1.00;;;;;;5057922;28;20051;-82
2023/04/20 01:50:52;;;;;;;2.30;1.50;;;8.30;1.00;;;;;;5053556;28;20056;-86
2023/04/20 01:53:18;;;;;;;2.97;1.55;;;8.40;1.00;;;;;;5053077;28;20036;-83
2023/04/20 01:55:44;;;;;;;3.90;1.35;;;8.10;1.00;;;;;;5069589;28;20067;-86
2023/04/20 01:58:10;;;;;;;2.97;1.48;;;8.60;1.00;;;;;;5037045;28;20474;-82
2023/04/20 02:00:36;;;;;;;2.47;1.60;;;8.30;1.00;;;;;;5052529;28;20040;-83
2023/04/20 02:03:02;;;;;;;3.00;1.50;;;7.80;1.00;;;;;;5057748;28;20052;-82
2023/04/20 02:05:27;;;;;;;2.70;1.50;;;8.00;1.00;;;;;;5050898;28;20037;-87
2023/04/20 02:07:53;;;;;;;3.42;1.55;;;8.20;1.00;;;;;;5053710;28;20078;-86
2023/04/20 02:10:19;;;;;;;3.50;1.50;;;8.00;1.00;;;;;;5020057;28;20059;-82
2023/04/20 02:12:45;;;;;;;6.47;1.90;;;7.90;1.00;;;;;;5053278;28;20048;-84
2023/04/20 02:15:10;;;;;;;4.38;1.60;;;8.20;1.00;;;;;;5035064;28;20098;-83
2023/04/20 02:17:36;;;;;;;4.57;1.40;;;8.10;1.00;;;;;;5043674;28;20056;-82
2023/04/20 02:20:07;;;;;;;2.78;1.52;;;8.00;1.00;;;;;;5050504;28;20431;-84
2023/04/20 02:22:34;;;;;;;2.95;1.58;;;8.00;1.00;;;;;;5071914;28;20048;-83
2023/04/20 02:25:04;;;;;;;3.58;1.70;;;7.90;1.00;;;;;;5030857;28;20065;-83
2023/04/20 02:27:31;;;;;;;2.28;1.60;;;8.00;1.00;;;;;;5069727;28;20104;-83
2023/04/20 02:29:57;;;;;;;6.18;1.70;;;8.00;1.00;;;;;;5058178;28;20084;-86
2023/04/20 02:32:23;;;;;;;4.55;1.50;;;7.90;1.00;;;;;;5041207;28;20048;-82
2023/04/20 02:34:49;;;;;;;4.05;1.63;;;8.00;1.00;;;;;;5045567;28;20055;-83
2023/04/20 02:37:14;;;;;;;6.25;2.22;;;8.00;1.00;;;;;;5007680;28;20055;-82
2023/04/20 02:39:40;;;;;;;3.85;1.65;;;8.10;1.00;;;;;;5049181;28;20040;-84
2023/04/20 02:42:06;;;;;;;6.43;1.90;;;8.10;1.00;;;;;;5073552;28;20052;-83
2023/04/20 02:44:32;;;;;;;4.97;1.73;;;8.10;1.00;;;;;;5053661;28;20048;-83
2023/04/20 02:46:58;;;;;;;5.38;1.60;;;8.10;1.00;;;;;;5055997;28;20060;-86
2023/04/20 02:49:24;;;;;;;6.93;1.55;;;8.10;1.00;;;;;;5050023;28;20055;-82
2023/04/20 02:51:49;;;;;;;3.28;1.45;;;8.20;1.00;;;;;;5028267;28;20052;-84
2023/04/20 02:54:16;;;;;;;5.00;2.67;;;8.10;1.00;;;;;;5072004;28;20573;-83
2023/04/20 02:56:41;;;;;;;3.47;1.70;;;8.20;1.00;;;;;;5054378;28;20033;-83
2023/04/20 02:59:07;;;;;;;4.25;1.45;;;8.20;1.00;;;;;;5044146;28;20604;-84
2023/04/20 03:01:33;;;;;;;8.02;1.95;;;8.10;1.00;;;;;;5068641;28;20048;-83
2023/04/20 03:03:58;;;;;;;6.20;1.70;;;8.20;1.00;;;;;;5055727;28;20051;-83
2023/04/20 03:06:25;;;;;;;3.22;1.75;;;8.20;1.00;;;;;;5056156;28;20040;-83
2023/04/20 03:08:51;;;;;;;3.38;1.38;;;8.10;1.00;;;;;;5056331;28;20048;-82
2023/04/20 03:11:16;;;;;;;6.25;1.75;;;8.20;1.00;;;;;;5064991;28;20066;-83
2023/04/20 03:13:42;;;;;;;3.05;1.70;;;8.10;1.00;;;;;;5030918;28;20049;-83
2023/04/20 03:16:08;;;;;;;3.45;1.70;;;8.00;1.00;;;;;;5039662;28;20094;-84
2023/04/20 03:18:34;;;;;;;2.05;1.42;;;8.20;1.00;;;;;;5081984;28;20151;-82
2023/04/20 03:20:59;;;;;;;3.13;1.90;;;8.30;1.00;;;;;;5073224;28;20450;-82
2023/04/20 03:23:25;;;;;;;2.60;1.80;;;8.30;1.00;;;;;;5036693;28;20111;-82
2023/04/20 03:25:51;;;;;;;4.85;1.80;;;8.30;1.00;;;;;;5067935;28;20055;-82
2023/04/20 03:28:16;;;;;;;2.83;1.40;;;8.40;1.00;;;;;;5068803;28;20040;-82
2023/04/20 03:30:42;;;;;;;3.42;2.00;;;8.50;1.00;;;;;;5079580;28;20608;-82
2023/04/20 03:33:08;;;;;;;2.55;1.42;;;8.30;1.00;;;;;;5067162;28;20052;-84
2023/04/20 03:35:34;;;;;;;4.97;1.77;;;8.40;1.00;;;;;;5047676;28;20535;-82
2023/04/20 03:38:00;;;;;;;4.03;1.50;;;8.30;1.00;;;;;;5043678;28;20051;-82
2023/04/20 03:40:26;;;;;;;3.97;1.80;;;8.20;1.00;;;;;;5070002;28;20052;-83
2023/04/20 03:42:51;;;;;;;7.43;1.60;;;8.10;1.00;;;;;;5043555;28;20113;-83
2023/04/20 03:45:17;;;;;;;3.47;1.70;;;8.10;1.00;;;;;;5041846;28;20477;-83
2023/04/20 03:47:43;;;;;;;5.20;1.85;;;8.30;1.00;;;;;;5039085;28;20044;-83
2023/04/20 03:50:09;;;;;;;2.10;1.50;;;8.30;1.00;;;;;;5079389;28;20071;-88
2023/04/20 03:52:35;;;;;;;3.15;1.70;;;8.30;1.00;;;;;;5064871;28;20063;-84
2023/04/20 03:55:01;;;;;;;4.47;1.77;;;8.30;1.00;;;;;;5058232;28;20051;-83
2023/04/20 03:57:26;;;;;;;6.43;1.85;;;8.20;1.00;;;;;;5058428;28;20106;-83
2023/04/20 03:59:52;;;;;;;4.60;2.15;;;8.20;1.00;;;;;;5067358;28;20066;-84
2023/04/20 04:02:18;;;;;;;5.82;1.77;;;8.20;1.00;;;;;;5034278;28;20129;-85
2023/04/20 04:04:44;;;;;;;3.00;1.40;;;8.30;1.00;;;;;;5074473;28;20043;-83
2023/04/20 04:07:10;;;;;;;3.90;1.92;;;8.30;1.00;;;;;;5048903;28;20505;-88
2023/04/20 04:09:35;;;;;;;4.57;1.52;;;7.70;1.00;;;;;;5065149;28;20056;-82
2023/04/20 04:12:03;;;;;;;3.13;1.60;;;8.10;1.00;;;;;;5022860;28;20044;-83
2023/04/20 04:14:29;;;;;;;2.35;1.65;;;7.80;1.00;;;;;;5037981;28;20474;-82
2023/04/20 04:16:55;;;;;;;3.97;1.60;;;7.50;1.00;;;;;;5069568;28;20127;-82
2023/04/20 04:19:20;;;;;;;3.45;1.67;;;7.10;1.00;;;;;;5061968;28;20063;-82
2023/04/20 04:21:46;;;;;;;3.88;1.80;;;7.20;1.00;;;;;;5027577;28;20089;-82
2023/04/20 04:24:12;;;;;;;4.63;1.60;;;7.20;1.00;;;;;;5057248;28;20040;-85
2023/04/20 04:26:37;;;;;;;5.32;1.67;;;7.30;1.00;;;;;;5075703;28;20048;-83
2023/04/20 04:29:03;;;;;;;2.97;1.50;;;7.20;1.00;;;;;;5065888;28;20039;-82
2023/04/20 04:31:31;;;;;;;3.70;1.40;;;7.20;1.00;;;;;;5053737;28;20477;-81
2023/04/20 04:33:57;;;;;;;4.53;1.70;;;7.00;1.00;;;;;;5075247;28;20042;-82
2023/04/20 04:36:25;;;;;;;10.10;1.80;;;7.00;70.20;;;;;;5057862;28;20130;-80
2023/04/20 04:38:51;;;;;;;2.40;1.42;;;6.80;99.90;;;;;;5078009;28;20116;-78
2023/04/20 04:41:17;;;;;;;4.40;1.60;;;6.70;99.90;;;;;;5067448;28;20072;-88
2023/04/20 04:43:43;;;;;;;4.53;2.15;;;6.50;99.90;;;;;;5050532;28;20098;-80
2023/04/20 04:46:10;;;;;;;3.78;1.70;;;6.50;99.90;;;;;;5032580;28;20044;-79
2023/04/20 04:48:36;;;;;;;5.53;2.03;;;6.40;99.90;;;;;;5061711;28;20261;-79
2023/04/20 04:51:03;;;;;;;6.78;1.95;;;6.40;99.90;;;;;;5071277;28;20048;-79
2023/04/20 04:53:29;;;;;;;3.05;1.80;;;6.30;99.90;;;;;;5064835;28;20520;-80
2023/04/20 04:55:54;;;;;;;3.13;1.95;;;6.30;99.90;;;;;;5051807;28;20048;-82
2023/04/20 04:58:20;;;;;;;4.75;2.47;;;6.00;99.90;;;;;;5042400;28;20052;-79
2023/04/20 05:00:47;;;;;;;8.60;2.03;;;6.20;99.90;;;;;;5068673;28;20048;-80
2023/04/20 05:03:12;;;;;;;4.60;1.90;;;6.40;99.90;;;;;;5039475;28;20121;-80
2023/04/20 05:05:38;;;;;;;7.28;1.88;;;6.00;99.90;;;;;;5033833;28;20078;-80
2023/04/20 05:08:04;;;;;;;3.17;1.85;;;6.00;99.90;;;;;;5047549;28;20766;-81
2023/04/20 05:10:30;;;;;;;4.47;1.95;;;6.20;99.90;;;;;;5061341;28;20051;-80
2023/04/20 05:12:57;;;;;;;4.03;2.03;;;6.00;99.90;;;;;;5032654;28;20508;-80
2023/04/20 05:15:23;;;;;;;4.55;1.90;;;6.00;99.90;;;;;;5055933;28;20044;-82
2023/04/20 05:17:49;;;;;;;4.03;1.73;;;6.10;99.90;;;;;;5071864;28;20553;-80
2023/04/20 05:20:15;;;;;;;5.43;2.80;;;6.30;99.90;;;;;;5052755;28;20173;-80
2023/04/20 05:22:41;;;;;;;3.67;2.10;;;6.00;99.90;;;;;;5073117;28;20201;-84
2023/04/20 05:25:07;;;;;;;4.07;1.75;;;6.30;99.90;;;;;;5047209;28;20469;-81
2023/04/20 05:27:33;;;;;;;2.70;2.08;;;5.90;99.90;;;;;;5065400;28;20059;-84
2023/04/20 05:29:59;;;;;;;5.70;2.38;;;6.40;99.90;;;;;;5057793;28;20040;-82
2023/04/20 05:32:24;;;;;;;4.53;1.90;;;6.10;99.90;;;;;;5071554;28;20048;-82
2023/04/20 05:34:50;;;;;;;5.32;2.03;;;6.40;99.90;;;;;;5054320;28;20126;-79
2023/04/20 05:37:16;;;;;;;3.25;1.33;;;6.30;99.90;;;;;;5071935;28;20400;-80
2023/04/20 05:39:41;;;;;;;3.92;1.77;;;6.30;99.90;;;;;;5070748;28;20051;-80
2023/04/20 05:42:07;;;;;;;4.93;2.15;;;6.10;99.90;;;;;;5045323;28;20110;-80
2023/04/20 05:44:35;;;;;;;5.63;2.05;;;6.30;99.90;;;;;;5054345;28;20131;-83
2023/04/20 05:47:05;;;;;;;3.47;1.95;;;6.50;99.90;;;;;;5038610;28;20047;-78
2023/04/20 05:49:31;;;;;;;5.30;2.10;;;6.50;99.90;;;;;;5072728;28;20047;-83
2023/04/20 05:51:57;;;;;;;5.70;2.40;;;6.30;99.90;;;;;;5060144;28;20067;-82
2023/04/20 05:54:23;;;;;;;4.60;2.30;;;6.50;99.90;;;;;;5066907;28;20417;-86
2023/04/20 05:56:49;;;;;;;5.78;2.53;;;6.50;99.90;;;;;;5058650;28;20051;-83
2023/04/20 05:59:16;;;;;;;4.10;2.05;;;6.60;99.90;;;;;;5076908;28;20044;-83
2023/04/20 06:01:41;;;;;;;3.58;2.40;;;6.50;99.90;;;;;;5080748;28;20044;-82
2023/04/20 06:04:07;;;;;;;4.03;2.28;;;6.20;99.90;;;;;;5056579;28;20048;-82
2023/04/20 06:06:33;;;;;;;5.80;2.42;;;6.40;99.90;;;;;;5036707;28;20563;-83
2023/04/20 06:08:59;;;;;;;5.38;2.15;;;6.60;99.90;;;;;;5067456;28;20036;-81
2023/04/20 06:11:27;;;;;;;6.25;2.33;;;6.40;99.90;;;;;;5073869;28;20699;-79
2023/04/20 06:13:53;;;;;;;6.85;2.47;;;6.30;99.90;;;;;;5034859;28;20082;-79
2023/04/20 06:16:18;;;;;;;6.30;2.83;;;6.10;99.90;;;;;;5072864;28;20044;-81
2023/04/20 06:18:44;;;;;;;5.28;1.98;;;6.20;99.90;;;;;;5058004;28;20039;-80
2023/04/20 06:21:11;;;;;;;6.07;1.83;;;6.00;99.90;;;;;;5069176;28;20506;-80
2023/04/20 06:23:37;;;;;;;3.53;2.03;;;6.00;99.90;;;;;;5055008;28;20067;-80
2023/04/20 06:26:07;;;;;;;3.25;2.00;;;6.00;99.90;;;;;;5070778;28;20707;-81
2023/04/20 06:28:33;;;;;;;9.55;2.50;;;6.10;99.90;;;;;;5077741;28;20044;-83
2023/04/20 06:30:59;;;;;;;3.15;2.17;;;6.20;99.90;;;;;;5051388;28;20059;-81
2023/04/20 06:33:25;;;;;;;4.55;2.00;;;6.10;99.90;;;;;;5058787;28;20044;-81
2023/04/20 06:35:53;;;;;;;4.93;2.28;;;6.10;99.90;;;;;;5051235;28;20052;-81
2023/04/20 06:38:19;;;;;;;6.28;2.47;;;6.10;99.90;;;;;;5076449;28;21465;-81
2023/04/20 06:40:45;;;;;;;4.85;2.50;;;6.10;99.90;;;;;;5077129;28;20545;-80
2023/04/20 06:43:11;;;;;;;4.80;2.60;;;5.80;99.90;;;;;;5078524;28;20052;-76
2023/04/20 06:45:37;;;;;;;6.10;2.65;;;6.00;99.90;;;;;;5078306;28;20124;-78
2023/04/20 06:48:03;;;;;;;9.80;3.03;;;6.10;99.90;;;;;;5075652;28;20040;-81
2023/04/20 06:50:28;;;;;;;4.13;2.10;;;5.80;1.00;;;;;;5067901;28;20112;-80
2023/04/20 06:52:54;;;;;;;5.05;2.50;;;6.00;1.00;;;;;;5084320;28;20055;-79
2023/04/20 06:55:20;;;;;;;6.20;2.72;;;6.20;1.00;;;;;;5064060;28;20505;-81
2023/04/20 06:57:46;;;;;;;5.68;2.08;;;5.70;37.80;;;;;;5077583;28;20040;-80
2023/04/20 07:00:12;;;;;;;3.85;2.30;;;5.60;99.90;;;;;;5062874;28;20047;-81
2023/04/20 07:02:42;;;;;;;3.90;2.20;;;5.50;99.90;;;;;;5050051;28;20072;-82
2023/04/20 07:05:08;;;;;;;5.43;2.38;;;5.40;99.90;;;;;;5041048;28;20119;-83
2023/04/20 07:07:34;;;;;;;6.72;2.53;;;5.50;99.90;;;;;;5043157;28;20177;-82
2023/04/20 07:09:59;;;;;;;6.55;2.42;;;5.60;99.90;;;;;;5060004;28;20047;-81
2023/04/20 07:12:25;;;;;;;4.47;2.65;;;5.40;99.90;;;;;;5033371;28;20598;-81
2023/04/20 07:14:51;;;;;;;6.50;2.85;;;5.40;99.90;;;;;;5067985;28;20044;-83
2023/04/20 07:17:16;;;;;;;6.53;3.10;;;5.20;99.90;;;;;;5060107;28;20503;-82
2023/04/20 07:19:42;;;;;;;4.60;2.85;;;5.70;99.90;;;;;;5057697;28;20070;-82
2023/04/20 07:22:08;;;;;;;6.85;2.80;;;6.40;99.90;;;;;;5059169;28;20051;-84
2023/04/20 07:24:33;;;;;;;8.68;4.40;;;5.60;99.90;;;;;;5058138;28;20552;-81
2023/04/20 07:26:59;;;;;;;8.00;3.72;;;5.80;99.90;;;;;;5041785;28;20603;-81
2023/04/20 07:29:25;;;;;;;6.72;2.92;;;5.80;99.90;;;;;;5023270;28;20091;-80
2023/04/20 07:31:51;;;;;;;11.18;3.45;;;6.20;99.90;;;;;;5061231;28;20076;-82
2023/04/20 07:34:16;;;;;;;4.82;2.80;;;6.30;99.90;;;;;;5058254;28;20032;-81
2023/04/20 07:36:42;;;;;;;7.07;3.08;;;6.20;99.90;;;;;;5058445;28;20105;-82
2023/04/20 07:39:14;;;;;;;8.18;3.38;;;6.00;99.90;;;;;;5054975;28;20066;-82
2023/04/20 07:41:40;;;;;;;4.70;2.78;;;6.10;99.90;;;;;;5063412;28;20043;-88
2023/04/20 07:44:06;;;;;;;5.97;2.72;;;6.20;99.90;;;;;;5073717;28;20036;-83
2023/04/20 07:46:31;;;;;;;6.32;3.25;;;6.20;99.90;;;;;;5049364;28;20046;-82
2023/04/20 07:48:57;;;;;;;4.22;2.60;;;6.10;99.90;;;;;;5060329;28;20127;-84
2023/04/20 07:51:23;;;;;;;3.15;2.30;;;6.30;99.90;;;;;;5058655;28;20067;-85
2023/04/20 07:53:48;;;;;;;6.05;3.15;;;6.10;99.90;;;;;;5060677;28;20092;-82
2023/04/20 07:56:14;;;;;;;6.90;3.05;;;6.30;1.00;;;;;;5066376;28;20036;-83
2023/04/20 07:58:40;;;;;;;7.15;3.00;;;6.50;1.00;;;;;;5032302;28;20123;-83
2023/04/20 08:01:06;;;;;;;8.30;3.55;;;6.20;99.90;;;;;;5059574;28;20483;-83
2023/04/20 08:03:32;;;;;;;5.30;3.10;;;6.50;99.90;;;;;;5066253;28;20123;-83
2023/04/20 08:05:58;;;;;;;6.70;3.33;;;6.30;99.90;;;;;;5058599;28;20043;-83
2023/04/20 08:08:23;;;;;;;6.78;3.53;;;6.60;99.90;;;;;;5089707;28;20359;-83
2023/04/20 08:10:49;;;;;;;6.93;3.20;;;6.40;99.90;;;;;;5027562;28;20456;-83
2023/04/20 08:13:15;;;;;;;6.03;3.10;;;6.50;99.90;;;;;;5053942;28;20048;-83
2023/04/20 08:15:41;;;;;;;6.25;3.22;;;6.50;99.90;;;;;;5053000;28;20127;-83
2023/04/20 08:18:06;;;;;;;5.38;3.10;;;6.70;99.90;;;;;;5052896;28;20101;-84
2023/04/20 08:20:32;;;;;;;5.80;3.22;;;6.90;99.90;;;;;;5063769;28;20083;-85
2023/04/20 08:22:58;;;;;;;5.72;3.60;;;7.10;99.90;;;;;;5043143;28;20383;-84
2023/04/20 08:25:24;;;;;;;6.13;3.17;;;7.30;99.90;;;;;;5042673;28;20067;-84
2023/04/20 08:27:49;;;;;;;5.68;3.53;;;7.20;99.90;;;;;;5064109;28;20590;-86
2023/04/20 08:30:15;;;;;;;5.68;3.92;;;7.30;99.90;;;;;;5050109;28;20055;-82
2023/04/20 08:32:41;;;;;;;8.52;4.57;;;7.60;99.90;;;;;;5054674;28;20132;-87
2023/04/20 08:35:07;;;;;;;7.28;4.22;;;7.70;99.90;;;;;;5075116;28;20470;-83
2023/04/20 08:37:33;;;;;;;9.60;4.30;;;7.70;99.90;;;;;;5061948;28;20052;-83
2023/04/20 08:39:59;;;;;;;6.47;4.55;;;7.60;99.90;;;;;;5069617;28;20049;-84
2023/04/20 08:42:24;;;;;;;5.43;3.33;;;7.40;99.90;;;;;;5065408;28;20040;-83
2023/04/20 08:44:51;;;;;;;7.78;3.60;;;7.40;99.90;;;;;;5050130;28;20044;-86
2023/04/20 08:47:19;;;;;;;5.95;3.15;;;7.50;99.90;;;;;;5076160;28;20195;-83
2023/04/20 08:49:48;;;;;;;8.23;3.60;;;7.30;99.90;;;;;;5069681;28;20075;-83
2023/04/20 08:52:14;;;;;;;8.50;3.22;;;7.40;99.90;;;;;;5073415;28;20060;-84
2023/04/20 08:54:40;;;;;;;7.55;3.78;;;7.40;99.90;;;;;;5042293;28;20528;-83
2023/04/20 08:57:06;;;;;;;6.72;3.47;;;7.60;99.90;;;;;;5067307;28;20054;-84
2023/04/20 08:59:35;;;;;;;6.85;3.95;;;7.70;99.90;;;;;;5040589;28;20127;-83
2023/04/20 09:02:13;;;;;;;5.07;3.30;;;7.40;99.90;;;;;;5081080;28;20108;-83
2023/04/20 09:04:39;;;;;;;5.28;3.28;;;7.50;52.90;;;;;;5056259;28;20051;-82
2023/04/20 09:07:15;;;;;;;5.10;3.20;;;7.60;99.90;;;;;;5056866;28;20086;-82
2023/04/20 09:09:51;;;;;;;5.75;3.22;;;7.50;99.90;;;;;;5058071;28;20044;-82
2023/04/20 09:12:17;;;;;;;6.68;3.20;;;7.60;99.90;;;;;;5046347;28;20507;-82
2023/04/20 09:14:45;;;;;;;6.55;3.75;;;7.50;99.90;;;;;;5043444;28;20135;-85
2023/04/20 09:17:13;;;;;;;8.13;4.07;;;7.70;99.90;;;;;;5075221;28;20048;-84
2023/04/20 09:19:40;;;;;;;7.05;3.92;;;7.70;99.90;;;;;;5067452;28;20076;-81
2023/04/20 09:22:05;;;;;;;7.85;4.03;;;8.00;99.90;;;;;;5055605;28;20060;-83
2023/04/20 09:24:33;;;;;;;8.88;4.22;;;7.90;99.90;;;;;;5055371;28;20164;-83
2023/04/20 09:27:01;;;;;;;7.40;3.92;;;7.70;99.90;;;;;;5060607;28;20036;-83
2023/04/20 09:29:28;;;;;;;7.10;3.80;;;7.60;99.90;;;;;;5039728;28;20052;-83
2023/04/20 09:31:55;;;;;;;7.38;3.92;;;7.60;99.90;;;;;;5070602;28;20131;-91
2023/04/20 09:34:22;;;;;;;7.53;3.80;;;7.70;99.90;;;;;;5054699;28;20480;-83
2023/04/20 09:36:50;;;;;;;8.25;4.07;;;8.00;99.90;;;;;;5060745;28;20048;-83
2023/04/20 09:39:18;;;;;;;9.25;4.40;;;7.90;99.90;;;;;;5082127;28;20611;-83
2023/04/20 09:41:44;;;;;;;6.65;4.20;;;7.80;99.90;;;;;;5040975;28;20413;-83
2023/04/20 09:44:11;;;;;;;7.97;4.30;;;8.10;99.90;;;;;;5027745;28;20472;-84
2023/04/20 09:46:41;;;;;;;9.95;4.53;;;8.20;99.90;;;;;;5053872;28;20437;-83
2023/04/20 09:49:12;;;;;;;10.13;4.15;;;8.00;99.90;;;;;;5074107;28;20068;-83
2023/04/20 09:51:40;;;;;;;8.18;4.18;;;7.60;99.90;;;;;;5056887;28;20154;-84
2023/04/20 09:54:07;;;;;;;8.98;4.55;;;7.90;99.90;;;;;;5070562;28;20044;-83
2023/04/20 09:56:34;;;;;;;10.05;5.22;;;7.80;99.90;;;;;;5063978;28;20047;-83
2023/04/20 09:59:02;;;;;;;8.20;4.40;;;7.90;99.90;;;;;;5046540;28;20040;-85
2023/04/20 10:01:33;;;;;;;8.98;5.20;;;7.90;99.90;;;;;;5075041;28;20460;-86
2023/04/20 10:04:00;;;;;;;8.45;4.13;;;7.90;99.90;;;;;;5049119;28;20067;-87
2023/04/20 10:06:31;;;;;;;10.55;4.63;;;8.10;99.90;;;;;;5054743;28;20048;-82
2023/04/20 10:09:00;;;;;;;7.93;4.00;;;8.20;99.90;;;;;;5064621;28;20075;-85
2023/04/20 10:11:35;;;;;;;8.07;4.20;;;8.20;99.90;;;;;;5051355;28;20048;-80
2023/04/20 10:14:15;;;;;;;8.05;4.47;;;8.20;99.90;;;;;;5059959;28;20036;-85
2023/04/20 10:16:41;;;;;;;7.35;4.43;;;8.40;42.50;;;;;;5069923;28;20055;-81
2023/04/20 10:19:07;;;;;;;8.63;4.38;;;8.30;52.10;;;;;;5065599;28;20045;-81
2023/04/20 10:21:47;;;;;;;8.35;4.50;;;8.40;1.00;;;;;;5042166;28;20046;-82
2023/04/20 10:24:14;;;;;;;7.55;4.55;;;8.40;1.00;;;;;;5065511;28;20418;-81
2023/04/20 10:26:44;;;;;;;10.65;4.60;;;8.30;1.00;;;;;;5073665;28;20104;-81
2023/04/20 10:29:23;;;;;;;7.25;4.25;;;8.30;6.80;;;;;;5073489;28;20072;-82
2023/04/20 10:31:49;;;;;;;6.10;4.03;;;8.30;1.00;;;;;;5031297;28;20441;-81
2023/04/20 10:34:15;;;;;;;7.18;4.50;;;8.20;1.00;;;;;;5079005;28;20044;-82
2023/04/20 10:36:41;;;;;;;7.68;4.47;;;8.00;8.70;;;;;;5056918;28;20047;-81
2023/04/20 10:39:15;;;;;;;6.50;4.22;;;8.30;69.30;;;;;;5040736;28;20048;-81
2023/04/20 10:42:00;;;;;;;5.47;3.95;;;8.40;59.70;;;;;;5072593;28;20044;-81
2023/04/20 10:44:26;;;;;;;8.27;4.43;;;8.50;51.30;;;;;;5061947;28;20040;-81
2023/04/20 10:46:52;;;;;;;7.25;4.28;;;8.40;1.00;;;;;;5056019;28;20104;-87
2023/04/20 10:49:18;;;;;;;8.43;4.82;;;8.60;1.00;;;;;;5073425;28;20116;-86
2023/04/20 10:51:48;;;;;;;9.70;5.18;;;8.40;1.00;;;;;;5009857;28;20505;-81
2023/04/20 10:54:14;;;;;;;9.48;5.00;;;8.40;1.00;;;;;;5052530;28;20063;-81
2023/04/20 10:56:43;;;;;;;9.32;5.28;;;8.20;1.00;;;;;;5059920;28;20041;-81
2023/04/20 10:59:14;;;;;;;8.93;4.72;;;8.20;1.00;;;;;;5053980;28;20117;-83
2023/04/20 11:01:40;;;;;;;10.23;5.85;;;8.10;47.80;;;;;;5074799;28;20051;-80
2023/04/20 11:04:07;;;;;;;8.30;5.32;;;8.30;99.90;;;;;;5057034;28;20039;-86
2023/04/20 11:06:33;;;;;;;8.35;5.28;;;8.90;99.90;;;;;;5071933;28;20040;-82
2023/04/20 11:08:59;;;;;;;9.23;5.18;;;10.20;24.50;;;;;;5075103;28;20044;-81
2023/04/20 11:11:27;;;;;;;7.97;4.60;;;11.50;1.00;;;;;;5077263;28;20051;-84
2023/04/20 11:14:13;;;;;;;7.93;4.90;;;13.10;99.90;;;;;;5046759;28;20086;-81
2023/04/20 11:16:39;;;;;;;10.95;7.35;;;14.40;99.90;;;;;;5047555;28;20056;-81
2023/04/20 11:19:05;;;;;;;8.85;5.63;;;14.10;99.80;;;;;;5053152;28;20055;-82
2023/04/20 11:21:36;;;;;;;7.38;5.38;;;13.20;99.90;;;;;;5059201;28;20043;-81
2023/04/20 11:24:01;;;;;;;10.48;5.53;;;12.20;99.90;;;;;;5077373;28;20048;-82
2023/04/20 11:26:37;;;;;;;8.82;5.22;;;11.40;99.90;;;;;;5063738;28;20047;-81
2023/04/20 11:29:06;;;;;;;7.20;5.40;;;10.80;99.90;;;;;;5048131;28;20052;-81
2023/04/20 11:31:32;;;;;;;8.18;5.00;;;10.40;99.90;;;;;;5059906;28;21678;-81
2023/04/20 11:33:57;;;;;;;11.60;4.93;;;10.10;99.90;;;;;;5059481;28;20083;-82
2023/04/20 11:36:27;;;;;;;11.50;5.20;;;10.40;99.90;;;;;;5066142;28;20502;-81
2023/04/20 11:38:53;;;;;;;8.70;5.10;;;11.10;99.90;;;;;;5085695;28;20075;-81
2023/04/20 11:41:19;;;;;;;9.23;6.47;;;11.80;99.90;;;;;;5076442;28;20126;-81
2023/04/20 11:43:45;;;;;;;8.50;5.72;;;12.40;99.90;;;;;;5056780;28;20044;-81
2023/04/20 11:46:20;;;;;;;10.85;5.85;;;13.10;99.90;;;;;;5077879;28;20040;-84
2023/04/20 11:48:46;;;;;;;10.80;5.57;;;14.10;77.00;;;;;;5060757;28;20039;-83
2023/04/20 11:51:13;;;;;;;9.40;5.70;;;14.90;62.10;;;;;;5040134;28;20056;-84
2023/04/20 11:53:40;;;;;;;8.38;5.32;;;15.40;1.00;;;;;;5069195;28;20048;-83
2023/04/20 11:56:06;;;;;;;10.15;6.13;;;15.70;1.00;;;;;;5077616;28;20055;-84
2023/04/20 11:58:32;;;;;;;8.02;6.30;;;16.60;1.00;;;;;;5066847;28;20127;-83
2023/04/20 12:00:58;;;;;;;9.27;5.47;;;16.80;1.00;;;;;;5052747;28;20127;-83
2023/04/20 12:03:25;;;;;;;8.90;5.70;;;15.80;1.00;;;;;;5068085;28;20052;-85
2023/04/20 12:05:51;;;;;;;8.43;5.63;;;15.00;1.00;;;;;;5071784;28;20542;-84
2023/04/20 12:08:17;;;;;;;6.80;4.28;;;14.60;1.00;;;;;;5060695;28;20048;-85
2023/04/20 12:10:43;;;;;;;7.00;4.93;;;13.80;1.00;;;;;;5071066;28;20040;-83
2023/04/20 12:13:09;;;;;;;8.82;4.95;;;13.60;1.00;;;;;;5060471;28;20049;-83
2023/04/20 12:15:35;;;;;;;8.02;5.13;;;13.50;1.00;;;;;;5067234;28;20046;-85
2023/04/20 12:18:01;;;;;;;10.38;5.18;;;14.30;1.00;;;;;;5058846;28;20071;-83
2023/04/20 12:20:26;;;;;;;10.35;5.10;;;15.20;1.00;;;;;;5065616;28;20047;-83
2023/04/20 12:22:52;;;;;;;7.38;5.18;;;15.80;1.00;;;;;;5072227;28;20044;-84
2023/04/20 12:25:18;;;;;;;9.13;5.63;;;15.60;1.00;;;;;;5058370;28;20500;-84
2023/04/20 12:27:44;;;;;;;8.35;5.50;;;15.20;1.00;;;;;;5070399;28;20044;-84
2023/04/20 12:30:10;;;;;;;8.15;5.55;;;14.70;1.00;;;;;;5038455;28;20056;-83
2023/04/20 12:32:36;;;;;;;12.30;6.32;;;14.40;1.00;;;;;;5056738;28;20070;-83
2023/04/20 12:35:02;;;;;;;9.10;6.50;;;13.90;1.00;;;;;;5056512;28;20047;-84
2023/04/20 12:37:27;;;;;;;9.63;6.05;;;14.20;1.00;;;;;;5072777;28;20052;-83
2023/04/20 12:39:53;;;;;;;8.75;5.47;;;14.40;1.00;;;;;;5074790;28;20491;-84
2023/04/20 12:42:19;;;;;;;9.38;4.80;;;14.90;1.00;;;;;;5075110;28;20092;-88
2023/04/20 12:44:44;;;;;;;8.88;5.97;;;16.00;1.00;;;;;;5039977;28;20041;-84
2023/04/20 12:47:12;;;;;;;7.85;5.70;;;17.20;1.00;;;;;;5041924;28;20047;-84
2023/04/20 12:49:38;;;;;;;10.15;5.63;;;18.30;1.00;;;;;;5067635;28;20056;-84
2023/04/20 12:52:03;;;;;;;8.07;5.45;;;18.00;1.00;;;;;;5062876;28;20052;-88
2023/04/20 12:54:29;;;;;;;9.93;5.97;;;17.90;1.00;;;;;;5072436;28;20056;-84
2023/04/20 12:56:55;;;;;;;8.25;5.65;;;17.70;1.00;;;;;;5038318;28;20155;-86